Time;durP1;ratioP1;P1;durP2;ratioP2;P2;SDS_P1;SDS_P2;PMS_P1;PMS_P2;Temp;Humidity;BMP_temperature;BMP_pressure;BME280_temperature;BME280_humidity;BME280_pressure;Samples;Min_cycle;Max_cycle;Signal;HPM_P1;HPM_P2
2021/11/02 00:00:15;;;;;;;1.02;0.50;;;;;;;;;;4534671;28;20517;-57
2021/11/02 00:02:25;;;;;;;2.03;0.73;;;;;;;;;;4515688;28;20029;-57
2021/11/02 00:04:36;;;;;;;1.43;0.70;;;;;;;;;;4534143;28;20361;-57
2021/11/02 00:06:47;;;;;;;1.45;0.60;;;;;;;;;;4516827;28;20037;-58
2021/11/02 00:08:57;;;;;;;1.20;0.80;;;;;;;;;;4534244;28;20037;-57
2021/11/02 00:11:08;;;;;;;1.50;0.60;;;;;;;;;;4532866;28;20041;-57
2021/11/02 00:13:22;;;;;;;1.60;0.70;;;;;;;;;;4517207;28;20117;-58
2021/11/02 00:15:36;;;;;;;1.20;0.65;;;;;;;;;;4514221;28;20374;-58
2021/11/02 00:17:51;;;;;;;0.93;0.60;;;;;;;;;;4499949;28;20046;-58
2021/11/02 00:20:04;;;;;;;1.00;0.57;;;;;;;;;;4534054;28;20033;-58
2021/11/02 00:22:15;;;;;;;1.08;0.40;;;;;;;;;;4519042;28;20756;-57
2021/11/02 00:26:42;;;;;;;1.73;0.77;;;;;;;;;;4535103;28;20037;-57
2021/11/02 00:28:52;;;;;;;1.37;0.50;;;;;;;;;;4535268;28;20037;-57
2021/11/02 00:31:03;;;;;;;2.10;0.80;;;;;;;;;;4534678;28;20039;-57
2021/11/02 00:33:14;;;;;;;1.13;0.50;;;;;;;;;;4533093;28;20041;-57
2021/11/02 00:35:25;;;;;;;1.10;0.50;;;;;;;;;;4516495;28;20033;-57
2021/11/02 00:37:36;;;;;;;1.27;0.63;;;;;;;;;;4532284;28;20059;-57
2021/11/02 00:39:46;;;;;;;0.57;0.50;;;;;;;;;;4533512;28;20591;-57
2021/11/02 00:41:57;;;;;;;0.87;0.50;;;;;;;;;;4534504;28;20064;-58
2021/11/02 00:44:07;;;;;;;1.10;0.60;;;;;;;;;;4536891;28;20092;-57
2021/11/02 00:46:24;;;;;;;1.33;0.57;;;;;;;;;;4536772;28;20412;-57
2021/11/02 00:48:34;;;;;;;2.72;0.80;;;;;;;;;;4534934;28;20225;-58
2021/11/02 00:50:46;;;;;;;1.53;0.70;;;;;;;;;;4536379;28;29393;-57
2021/11/02 00:52:56;;;;;;;1.35;0.70;;;;;;;;;;4537536;28;20044;-57
2021/11/02 00:55:08;;;;;;;0.93;0.50;;;;;;;;;;4537602;28;20958;-57
2021/11/02 00:57:18;;;;;;;2.58;0.70;;;;;;;;;;4501437;28;20066;-57
2021/11/02 00:59:29;;;;;;;1.17;0.60;;;;;;;;;;4536099;28;20469;-57
2021/11/02 01:01:40;;;;;;;0.90;0.70;;;;;;;;;;4534524;28;20029;-57
2021/11/02 01:03:50;;;;;;;1.50;0.60;;;;;;;;;;4535131;28;20585;-57
2021/11/02 01:06:00;;;;;;;1.43;0.50;;;;;;;;;;4538265;28;20601;-57
2021/11/02 01:08:11;;;;;;;2.03;0.70;;;;;;;;;;4537618;28;20033;-57
2021/11/02 01:10:22;;;;;;;2.07;0.77;;;;;;;;;;4537148;28;20037;-58
2021/11/02 01:12:34;;;;;;;1.23;0.50;;;;;;;;;;4534122;28;20029;-57
2021/11/02 01:14:44;;;;;;;1.93;0.70;;;;;;;;;;4536416;28;20045;-57
2021/11/02 01:16:56;;;;;;;1.77;0.60;;;;;;;;;;4518460;28;20648;-57
2021/11/02 01:19:08;;;;;;;1.40;0.65;;;;;;;;;;4518528;28;20029;-57
2021/11/02 01:21:19;;;;;;;1.90;0.70;;;;;;;;;;4518483;28;20479;-57
2021/11/02 01:23:32;;;;;;;2.27;0.50;;;;;;;;;;4518676;28;20040;-57
2021/11/02 01:25:43;;;;;;;1.75;0.60;;;;;;;;;;4536519;28;20254;-57
2021/11/02 01:27:54;;;;;;;1.90;0.70;;;;;;;;;;4502298;28;20036;-58
2021/11/02 01:30:10;;;;;;;1.02;0.60;;;;;;;;;;4515850;28;20034;-58
2021/11/02 01:32:21;;;;;;;1.52;0.60;;;;;;;;;;4518553;28;20030;-58
2021/11/02 01:34:36;;;;;;;0.82;0.50;;;;;;;;;;4521918;28;20161;-58
2021/11/02 01:36:48;;;;;;;2.22;0.80;;;;;;;;;;4511209;28;20389;-58
2021/11/02 01:38:59;;;;;;;2.30;0.70;;;;;;;;;;4535260;28;20037;-58
2021/11/02 01:41:10;;;;;;;2.27;1.00;;;;;;;;;;4519285;28;20038;-58
2021/11/02 01:43:21;;;;;;;1.25;0.70;;;;;;;;;;4537808;28;20194;-58
2021/11/02 01:45:32;;;;;;;1.23;0.67;;;;;;;;;;4519520;28;20092;-58
2021/11/02 01:47:48;;;;;;;1.70;0.65;;;;;;;;;;4504367;28;20046;-58
2021/11/02 01:50:04;;;;;;;0.60;0.50;;;;;;;;;;4503489;28;20022;-59
2021/11/02 01:52:17;;;;;;;1.55;0.60;;;;;;;;;;4514712;28;20046;-62
2021/11/02 01:54:31;;;;;;;1.40;0.70;;;;;;;;;;4535483;28;20124;-58
2021/11/02 01:56:48;;;;;;;2.05;0.65;;;;;;;;;;4512626;28;20040;-58
2021/11/02 01:59:01;;;;;;;2.85;0.77;;;;;;;;;;4534816;28;20067;-58
2021/11/02 02:01:51;;;;;;;1.73;0.70;;;;;;;;;;4518245;28;20033;-58
2021/11/02 02:04:11;;;;;;;1.73;0.70;;;;;;;;;;4518675;28;20108;-58
2021/11/02 02:06:27;;;;;;;1.35;0.70;;;;;;;;;;4502498;28;20038;-58
2021/11/02 02:09:03;;;;;;;1.42;0.65;;;;;;;;;;4535912;28;20043;-58
2021/11/02 02:11:20;;;;;;;1.02;0.60;;;;;;;;;;4537264;28;20037;-58
2021/11/02 02:13:42;;;;;;;1.25;0.70;;;;;;;;;;4517331;28;20040;-58
2021/11/02 02:16:14;;;;;;;1.70;0.70;;;;;;;;;;4495111;28;20040;-58
2021/11/02 02:18:48;;;;;;;0.82;0.50;;;;;;;;;;4501267;28;20034;-58
2021/11/02 02:21:12;;;;;;;1.83;0.75;;;;;;;;;;4518191;28;20045;-58
2021/11/02 02:24:09;;;;;;;1.35;0.60;;;;;;;;;;4502409;28;20623;-58
2021/11/02 02:26:57;;;;;;;1.30;0.65;;;;;;;;;;4513987;28;20045;-58
2021/11/02 02:29:08;;;;;;;1.98;0.70;;;;;;;;;;4535616;28;20029;-58
2021/11/02 02:31:20;;;;;;;1.70;0.68;;;;;;;;;;4535083;28;20735;-58
2021/11/02 02:33:43;;;;;;;1.00;0.60;;;;;;;;;;4517759;28;20045;-58
2021/11/02 02:35:57;;;;;;;1.52;0.60;;;;;;;;;;4501966;28;20038;-58
2021/11/02 02:38:10;;;;;;;1.02;0.60;;;;;;;;;;4498641;28;20175;-58
2021/11/02 02:40:20;;;;;;;1.38;0.55;;;;;;;;;;4500885;28;20849;-58
2021/11/02 02:42:34;;;;;;;2.28;0.63;;;;;;;;;;4517471;28;20593;-58
2021/11/02 02:44:49;;;;;;;0.68;0.55;;;;;;;;;;4534205;28;20063;-58
2021/11/02 02:47:02;;;;;;;1.45;0.70;;;;;;;;;;4517828;28;20029;-58
2021/11/02 02:49:13;;;;;;;0.88;0.40;;;;;;;;;;4516027;28;20034;-58
2021/11/02 02:51:24;;;;;;;1.42;0.60;;;;;;;;;;4517397;28;20037;-58
2021/11/02 02:53:36;;;;;;;1.15;0.52;;;;;;;;;;4516379;28;20076;-58
2021/11/02 02:55:47;;;;;;;;;;;;;;;;;;4495180;28;20030;-58
2021/11/02 02:58:00;;;;;;;0.77;0.60;;;;;;;;;;4516744;28;19916;-58
2021/11/02 03:00:12;;;;;;;1.50;0.60;;;;;;;;;;4501232;28;20033;-58
2021/11/02 03:02:29;;;;;;;1.15;0.63;;;;;;;;;;4525298;28;20608;-58
2021/11/02 03:04:40;;;;;;;1.30;0.63;;;;;;;;;;4516363;28;20501;-59
2021/11/02 03:06:59;;;;;;;1.08;0.60;;;;;;;;;;4501809;28;20033;-58
2021/11/02 03:09:13;;;;;;;1.45;0.70;;;;;;;;;;4511621;28;20033;-58
2021/11/02 03:11:25;;;;;;;1.50;0.57;;;;;;;;;;4498186;28;20030;-58
2021/11/02 03:13:39;;;;;;;1.35;0.68;;;;;;;;;;4500876;28;20041;-62
2021/11/02 03:16:01;;;;;;;1.45;0.68;;;;;;;;;;4534523;28;20033;-61
2021/11/02 03:18:53;;;;;;;;;;;;;;;;;;4517077;28;20461;-58
2021/11/02 03:44:05;;;;;;;1.73;0.52;;;;;;;;;;4519083;28;20083;-58
2021/11/02 03:51:17;;;;;;;1.05;0.50;;;;;;;;;;4511092;28;20026;-58
2021/11/02 03:59:17;;;;;;;1.52;0.55;;;;;;;;;;4533488;28;20051;-58
2021/11/02 04:44:29;;;;;;;2.95;0.80;;;;;;;;;;4505101;28;20038;-58
2021/11/02 05:51:41;;;;;;;2.05;0.77;;;;;;;;;;4533673;28;20485;-58
2021/11/02 05:53:56;;;;;;;1.35;0.80;;;;;;;;;;4531532;28;20787;-58
2021/11/02 05:56:21;;;;;;;1.20;0.70;;;;;;;;;;4495624;28;20042;-58
2021/11/02 06:01:12;;;;;;;2.70;0.80;;;;;;;;;;4502322;28;20057;-58
2021/11/02 06:03:29;;;;;;;1.20;0.43;;;;;;;;;;4517716;28;20046;-58
2021/11/02 06:28:37;;;;;;;0.95;0.60;;;;;;;;;;4534184;28;20033;-58
2021/11/02 06:30:54;;;;;;;1.40;0.80;;;;;;;;;;4534388;28;20044;-59
2021/11/02 06:35:34;;;;;;;1.67;0.60;;;;;;;;;;4533593;28;20040;-59
2021/11/02 06:38:02;;;;;;;0.73;0.55;;;;;;;;;;4536004;28;20124;-58
2021/11/02 06:52:42;;;;;;;0.82;0.52;;;;;;;;;;4532037;28;20159;-58
2021/11/02 07:00:53;;;;;;;0.93;0.70;;;;;;;;;;4509864;28;20138;-58
2021/11/02 07:15:47;;;;;;;1.95;1.10;;;;;;;;;;4533520;28;20633;-58
2021/11/02 07:18:11;;;;;;;;;;;;;;;;;;4533857;28;20041;-58
2021/11/02 07:23:39;;;;;;;1.40;0.82;;;;;;;;;;4532892;28;20720;-58
2021/11/02 07:25:26;;;;;;;0.90;0.90;;;;;;;;;;4519697;28;20064;-58
2021/11/02 08:46:41;;;;;;;1.85;1.42;;;;;;;;;;4474235;28;20067;-58
2021/11/02 08:48:56;;;;;;;2.17;1.63;;;;;;;;;;4533306;28;20108;-57
2021/11/02 08:51:07;;;;;;;2.25;1.75;;;;;;;;;;4496866;28;20664;-57
2021/11/02 08:53:19;;;;;;;2.30;1.30;;;;;;;;;;4514531;28;20589;-59
2021/11/02 08:55:30;;;;;;;2.58;1.30;;;;;;;;;;4529811;28;20163;-58
2021/11/02 08:57:40;;;;;;;1.90;1.17;;;;;;;;;;4533567;28;20039;-59
2021/11/02 08:59:52;;;;;;;1.87;1.10;;;;;;;;;;4514811;28;20040;-60
2021/11/02 09:02:11;;;;;;;2.13;1.23;;;;;;;;;;4514376;28;20061;-59
2021/11/02 09:04:30;;;;;;;1.23;0.90;;;;;;;;;;4516657;28;20683;-59
2021/11/02 09:06:41;;;;;;;2.55;1.40;;;;;;;;;;4533399;28;20052;-59
2021/11/02 09:08:55;;;;;;;1.73;1.00;;;;;;;;;;4517681;28;20200;-59
2021/11/02 09:11:06;;;;;;;1.83;0.70;;;;;;;;;;4518431;28;20584;-59
2021/11/02 09:13:16;;;;;;;1.88;1.00;;;;;;;;;;4518053;28;20080;-59
2021/11/02 09:15:32;;;;;;;1.77;1.00;;;;;;;;;;4518052;28;20507;-59
2021/11/02 09:17:49;;;;;;;1.27;0.85;;;;;;;;;;4536179;28;20033;-56
2021/11/02 09:20:01;;;;;;;1.77;0.90;;;;;;;;;;4519505;28;20116;-58
2021/11/02 09:22:14;;;;;;;1.50;0.77;;;;;;;;;;4536477;28;20032;-58
2021/11/02 09:24:24;;;;;;;1.23;0.80;;;;;;;;;;4536527;28;20036;-59
2021/11/02 09:26:40;;;;;;;1.03;0.80;;;;;;;;;;4518523;28;20045;-58
2021/11/02 09:28:50;;;;;;;1.25;0.80;;;;;;;;;;4535803;28;20033;-58
2021/11/02 09:31:02;;;;;;;1.47;0.80;;;;;;;;;;4536761;28;20584;-58
2021/11/02 09:33:13;;;;;;;1.20;0.80;;;;;;;;;;4535255;28;20041;-58
2021/11/02 09:35:26;;;;;;;1.95;0.73;;;;;;;;;;4518631;28;20038;-58
2021/11/02 09:37:38;;;;;;;1.02;0.70;;;;;;;;;;4537211;28;20041;-59
2021/11/02 09:39:50;;;;;;;0.80;0.80;;;;;;;;;;4536201;28;20706;-58
2021/11/02 09:42:08;;;;;;;1.10;0.65;;;;;;;;;;4533953;28;20818;-58
2021/11/02 09:44:45;;;;;;;0.60;0.60;;;;;;;;;;4536686;28;20033;-58
2021/11/02 09:47:13;;;;;;;0.63;0.60;;;;;;;;;;4525269;28;20080;-58
2021/11/02 09:49:51;;;;;;;1.85;1.08;;;;;;;;;;4534050;28;20041;-57
2021/11/02 09:52:15;;;;;;;2.20;0.77;;;;;;;;;;4534662;28;20044;-58
2021/11/02 09:54:31;;;;;;;1.48;0.93;;;;;;;;;;4517359;28;20592;-57
2021/11/02 09:57:23;;;;;;;1.00;0.60;;;;;;;;;;4517416;28;20029;-58
2021/11/02 09:59:52;;;;;;;2.08;1.00;;;;;;;;;;4519309;28;20044;-58
2021/11/02 10:02:19;;;;;;;1.42;0.70;;;;;;;;;;4518338;28;20480;-57
2021/11/02 10:04:56;;;;;;;1.30;0.63;;;;;;;;;;4535252;28;20122;-58
2021/11/02 10:07:36;;;;;;;1.27;0.85;;;;;;;;;;4535937;28;20584;-57
2021/11/02 10:10:10;;;;;;;0.90;0.60;;;;;;;;;;4535437;28;20035;-58
2021/11/02 10:12:24;;;;;;;1.30;1.00;;;;;;;;;;4534586;28;20606;-58
2021/11/02 10:14:58;;;;;;;2.25;0.85;;;;;;;;;;4516590;28;20165;-58
2021/11/02 10:17:21;;;;;;;2.50;1.00;;;;;;;;;;4517386;28;20038;-57
2021/11/02 10:19:32;;;;;;;1.77;0.80;;;;;;;;;;4535118;28;20056;-57
2021/11/02 10:22:11;;;;;;;1.90;0.80;;;;;;;;;;4535393;28;20124;-58
2021/11/02 10:24:40;;;;;;;1.48;0.70;;;;;;;;;;4516956;28;20049;-57
2021/11/02 10:27:09;;;;;;;0.80;0.70;;;;;;;;;;4531302;28;20034;-57
2021/11/02 10:29:46;;;;;;;1.80;0.77;;;;;;;;;;4533798;28;20699;-57
2021/11/02 10:32:07;;;;;;;0.93;0.80;;;;;;;;;;4534018;28;20533;-58
2021/11/02 10:34:37;;;;;;;0.77;0.63;;;;;;;;;;4535120;28;20041;-57
2021/11/02 10:36:52;;;;;;;1.15;0.80;;;;;;;;;;4536197;28;20084;-57
2021/11/02 10:39:10;;;;;;;2.22;0.73;;;;;;;;;;4533946;28;20681;-57
2021/11/02 10:41:25;;;;;;;1.73;0.80;;;;;;;;;;4513682;28;20042;-57
2021/11/02 10:44:09;;;;;;;1.52;0.70;;;;;;;;;;4493210;28;20162;-57
2021/11/02 10:46:31;;;;;;;1.60;0.70;;;;;;;;;;4492349;28;20132;-57
2021/11/02 10:48:46;;;;;;;2.15;0.82;;;;;;;;;;4532474;28;20170;-57
2021/11/02 10:51:06;;;;;;;1.58;0.90;;;;;;;;;;4533347;28;20639;-57
2021/11/02 10:53:32;;;;;;;1.73;0.63;;;;;;;;;;4515885;28;20034;-57
2021/11/02 10:55:50;;;;;;;2.42;0.93;;;;;;;;;;4532382;28;20029;-57
2021/11/02 10:58:23;;;;;;;1.05;0.70;;;;;;;;;;4533062;28;20615;-58
2021/11/02 11:00:34;;;;;;;1.05;0.82;;;;;;;;;;4534411;28;20103;-57
2021/11/02 11:02:46;;;;;;;1.73;0.85;;;;;;;;;;4533487;28;20087;-58
2021/11/02 11:04:58;;;;;;;1.00;0.75;;;;;;;;;;4516331;28;20037;-58
2021/11/02 11:07:09;;;;;;;1.25;0.80;;;;;;;;;;4534851;28;20029;-57
2021/11/02 11:09:21;;;;;;;3.73;0.80;;;;;;;;;;4534823;28;20564;-58
2021/11/02 11:11:33;;;;;;;2.25;0.80;;;;;;;;;;4533727;28;20037;-57
2021/11/02 11:13:46;;;;;;;0.80;0.73;;;;;;;;;;4533938;28;21638;-58
2021/11/02 11:16:00;;;;;;;1.30;0.75;;;;;;;;;;4531750;28;20041;-57
2021/11/02 11:18:11;;;;;;;1.15;0.65;;;;;;;;;;4534464;28;20108;-57
2021/11/02 11:20:23;;;;;;;2.13;0.87;;;;;;;;;;4517346;28;20057;-57
2021/11/02 11:22:42;;;;;;;1.17;0.70;;;;;;;;;;4533852;28;20145;-57
2021/11/02 11:25:00;;;;;;;2.38;0.60;;;;;;;;;;4531281;28;20033;-58
2021/11/02 11:27:11;;;;;;;1.40;0.80;;;;;;;;;;4532823;28;20025;-57
2021/11/02 11:29:26;;;;;;;2.33;0.90;;;;;;;;;;4533524;28;20757;-57
2021/11/02 11:31:36;;;;;;;0.93;0.70;;;;;;;;;;4516410;28;20620;-57
2021/11/02 11:33:50;;;;;;;1.17;0.80;;;;;;;;;;4534206;28;20049;-57
2021/11/02 11:36:03;;;;;;;0.70;0.50;;;;;;;;;;4532567;28;20033;-57
2021/11/02 11:38:14;;;;;;;1.58;0.52;;;;;;;;;;4515281;28;20638;-57
2021/11/02 11:40:25;;;;;;;1.50;0.68;;;;;;;;;;4532224;28;20195;-59
2021/11/02 11:42:36;;;;;;;2.40;0.60;;;;;;;;;;4532960;28;20532;-57
2021/11/02 11:44:52;;;;;;;1.02;0.55;;;;;;;;;;4515814;28;20257;-57
2021/11/02 11:47:11;;;;;;;1.63;1.00;;;;;;;;;;4532186;28;20076;-58
2021/11/02 11:49:27;;;;;;;1.10;0.60;;;;;;;;;;4534203;28;20635;-57
2021/11/02 11:51:37;;;;;;;1.10;0.63;;;;;;;;;;4533503;28;20124;-58
2021/11/02 11:53:56;;;;;;;1.33;0.68;;;;;;;;;;4516712;28;20044;-57
2021/11/02 11:56:10;;;;;;;1.60;0.70;;;;;;;;;;4533783;28;20674;-58
2021/11/02 11:58:22;;;;;;;0.73;0.57;;;;;;;;;;4495087;28;20038;-58
2021/11/02 12:00:34;;;;;;;1.20;0.70;;;;;;;;;;4532918;28;20115;-58
2021/11/02 12:03:05;;;;;;;1.38;0.50;;;;;;;;;;4532517;28;20584;-58
2021/11/02 12:05:17;;;;;;;2.20;0.63;;;;;;;;;;4533351;28;20068;-58
2021/11/02 12:07:51;;;;;;;1.65;0.60;;;;;;;;;;4533159;28;20663;-58
2021/11/02 12:10:07;;;;;;;1.17;0.50;;;;;;;;;;4511247;28;20148;-58
2021/11/02 12:12:23;;;;;;;1.25;0.60;;;;;;;;;;4515952;28;20026;-58
2021/11/02 12:14:34;;;;;;;1.73;0.60;;;;;;;;;;4534562;28;20064;-58
2021/11/02 12:16:46;;;;;;;1.15;0.60;;;;;;;;;;4534724;28;20252;-58
2021/11/02 12:19:02;;;;;;;1.75;0.60;;;;;;;;;;4532839;28;20080;-58
2021/11/02 12:21:22;;;;;;;1.40;0.50;;;;;;;;;;4515753;28;20038;-58
2021/11/02 12:23:39;;;;;;;0.70;0.40;;;;;;;;;;4532840;28;20224;-58
2021/11/02 12:25:56;;;;;;;1.00;0.55;;;;;;;;;;4516000;28;20619;-58
2021/11/02 12:28:42;;;;;;;1.25;0.60;;;;;;;;;;4515506;28;20189;-58
2021/11/02 12:30:53;;;;;;;0.70;0.45;;;;;;;;;;4531650;28;20211;-58
2021/11/02 12:33:10;;;;;;;0.85;0.60;;;;;;;;;;4531952;28;20124;-58
2021/11/02 12:35:42;;;;;;;1.50;0.50;;;;;;;;;;4532172;28;20045;-59
2021/11/02 12:37:56;;;;;;;1.20;0.50;;;;;;;;;;4517733;28;20037;-58
2021/11/02 12:40:22;;;;;;;0.60;0.40;;;;;;;;;;4519505;28;20550;-58
2021/11/02 12:42:36;;;;;;;1.13;0.60;;;;;;;;;;4536846;28;20047;-58
2021/11/02 12:44:49;;;;;;;1.17;0.40;;;;;;;;;;4536810;28;20509;-59
2021/11/02 12:47:03;;;;;;;1.75;0.68;;;;;;;;;;4536808;28;20059;-58
2021/11/02 12:49:18;;;;;;;1.00;0.52;;;;;;;;;;4535848;28;20041;-58
2021/11/02 12:51:30;;;;;;;0.80;0.43;;;;;;;;;;4519871;28;20038;-58
2021/11/02 12:53:45;;;;;;;0.38;0.38;;;;;;;;;;4518922;28;20048;-58
2021/11/02 12:55:57;;;;;;;0.40;0.40;;;;;;;;;;4519826;28;20041;-58
2021/11/02 12:58:10;;;;;;;1.02;0.50;;;;;;;;;;4518831;28;30854;-58
2021/11/02 13:00:28;;;;;;;0.90;0.32;;;;;;;;;;4537497;28;20051;-58
2021/11/02 13:02:42;;;;;;;0.90;0.40;;;;;;;;;;4536113;28;20548;-58
2021/11/02 13:05:03;;;;;;;1.00;0.50;;;;;;;;;;4536867;28;20626;-58
2021/11/02 13:07:14;;;;;;;1.20;0.50;;;;;;;;;;4537713;28;20135;-58
2021/11/02 13:09:34;;;;;;;0.30;0.27;;;;;;;;;;4537187;28;20461;-58
2021/11/02 13:11:45;;;;;;;1.23;0.57;;;;;;;;;;4535876;28;20600;-56
2021/11/02 13:14:03;;;;;;;0.93;0.60;;;;;;;;;;4513249;28;20104;-57
2021/11/02 13:16:14;;;;;;;1.75;0.52;;;;;;;;;;4536721;28;20569;-57
2021/11/02 13:18:37;;;;;;;0.90;0.30;;;;;;;;;;4518826;28;20034;-56
2021/11/02 13:20:50;;;;;;;0.50;0.40;;;;;;;;;;4536391;28;20111;-57
2021/11/02 13:23:02;;;;;;;1.60;0.60;;;;;;;;;;4535494;28;20057;-57
2021/11/02 13:25:12;;;;;;;1.23;0.57;;;;;;;;;;4535832;28;20580;-58
2021/11/02 13:27:54;;;;;;;1.03;0.57;;;;;;;;;;4535035;28;20867;-57
2021/11/02 13:30:34;;;;;;;1.38;0.70;;;;;;;;;;4533559;28;20059;-59
2021/11/02 13:33:30;;;;;;;0.82;0.45;;;;;;;;;;4534328;28;20041;-57
2021/11/02 13:36:04;;;;;;;1.52;0.70;;;;;;;;;;4532640;28;20128;-58
2021/11/02 13:38:21;;;;;;;5.22;1.88;;;;;;;;;;4536018;28;20041;-58
2021/11/02 13:40:38;;;;;;;7.13;3.00;;;;;;;;;;4519198;28;20556;-57
2021/11/02 13:42:49;;;;;;;6.88;3.50;;;;;;;;;;4535014;28;20488;-58
2021/11/02 13:45:02;;;;;;;5.05;2.15;;;;;;;;;;4520943;28;20108;-58
2021/11/02 13:47:13;;;;;;;3.33;1.27;;;;;;;;;;4518923;28;20033;-58
2021/11/02 13:49:24;;;;;;;3.10;1.10;;;;;;;;;;4518616;28;20883;-57
2021/11/02 13:51:34;;;;;;;1.97;0.90;;;;;;;;;;4533530;28;26795;-59
2021/11/02 13:53:45;;;;;;;3.08;1.70;;;;;;;;;;4534655;28;20180;-57
2021/11/02 13:55:56;;;;;;;5.63;2.93;;;;;;;;;;4535506;28;20035;-57
2021/11/02 13:58:06;;;;;;;5.67;2.30;;;;;;;;;;4535125;28;20689;-57
2021/11/02 14:00:16;;;;;;;4.73;2.37;;;;;;;;;;4536111;28;20033;-57
2021/11/02 14:02:27;;;;;;;6.27;2.40;;;;;;;;;;4533797;28;20086;-57
2021/11/02 14:04:39;;;;;;;4.78;2.15;;;;;;;;;;4516912;28;20039;-57
2021/11/02 14:06:54;;;;;;;4.55;2.25;;;;;;;;;;4496452;28;20136;-57
2021/11/02 14:09:11;;;;;;;5.90;2.38;;;;;;;;;;4518562;28;20119;-58
2021/11/02 14:11:30;;;;;;;6.28;3.25;;;;;;;;;;4534767;28;20540;-57
2021/11/02 14:13:46;;;;;;;5.82;2.45;;;;;;;;;;4519301;28;20945;-57
2021/11/02 14:16:00;;;;;;;5.45;2.63;;;;;;;;;;4536554;28;20071;-57
2021/11/02 14:18:11;;;;;;;5.82;2.72;;;;;;;;;;4518438;28;20069;-57
2021/11/02 14:20:39;;;;;;;4.77;2.13;;;;;;;;;;4536496;28;20044;-57
2021/11/02 14:22:52;;;;;;;4.13;1.70;;;;;;;;;;4535274;28;20029;-58
2021/11/02 14:25:13;;;;;;;2.20;0.80;;;;;;;;;;4517639;28;20091;-57
2021/11/02 14:27:43;;;;;;;3.35;1.17;;;;;;;;;;4534654;28;20112;-58
2021/11/02 14:29:55;;;;;;;1.52;0.50;;;;;;;;;;4535037;28;20048;-58
2021/11/02 14:32:06;;;;;;;0.70;0.50;;;;;;;;;;4517706;28;20069;-58
2021/11/02 14:34:28;;;;;;;0.77;0.50;;;;;;;;;;4535397;28;20132;-58
2021/11/02 14:36:40;;;;;;;2.38;0.80;;;;;;;;;;4510725;28;20086;-57
2021/11/02 14:38:51;;;;;;;1.85;0.80;;;;;;;;;;4535243;28;20148;-57
2021/11/02 14:41:20;;;;;;;2.83;0.50;;;;;;;;;;4517168;28;20188;-58
2021/11/02 14:43:34;;;;;;;1.05;0.63;;;;;;;;;;4535657;28;20037;-58
2021/11/02 14:45:49;;;;;;;0.75;0.40;;;;;;;;;;4533926;28;20021;-59
2021/11/02 14:48:00;;;;;;;0.93;0.50;;;;;;;;;;4517869;28;20048;-58
2021/11/02 14:50:32;;;;;;;1.23;0.60;;;;;;;;;;4517940;28;20523;-57
2021/11/02 14:52:43;;;;;;;1.40;0.63;;;;;;;;;;4534383;28;20041;-57
2021/11/02 14:54:54;;;;;;;;;;;;;;;;;;4535494;28;20665;-57
2021/11/02 14:57:37;;;;;;;1.30;0.63;;;;;;;;;;4536251;28;19921;-57
2021/11/02 14:59:57;;;;;;;0.77;0.40;;;;;;;;;;4524414;28;20049;-58
2021/11/02 15:02:07;;;;;;;0.85;0.50;;;;;;;;;;4516795;28;21007;-57
2021/11/02 15:04:19;;;;;;;1.23;0.60;;;;;;;;;;4534603;28;20056;-57
2021/11/02 15:06:38;;;;;;;0.45;0.38;;;;;;;;;;4535704;28;20256;-57
2021/11/02 15:08:50;;;;;;;1.02;0.50;;;;;;;;;;4535158;28;20033;-57
2021/11/02 15:11:15;;;;;;;1.83;0.57;;;;;;;;;;4534746;28;20056;-58
2021/11/02 15:13:26;;;;;;;1.63;0.50;;;;;;;;;;4520014;28;20154;-58
2021/11/02 15:15:36;;;;;;;0.40;0.30;;;;;;;;;;4534118;28;20037;-58
2021/11/02 15:17:52;;;;;;;1.00;0.40;;;;;;;;;;4517879;28;20029;-58
2021/11/02 15:20:02;;;;;;;1.25;0.40;;;;;;;;;;4535266;28;20032;-57
2021/11/02 15:22:18;;;;;;;1.40;0.40;;;;;;;;;;4514866;28;20041;-57
2021/11/02 15:24:39;;;;;;;1.05;0.60;;;;;;;;;;4534271;28;20033;-57
2021/11/02 15:27:14;;;;;;;2.88;0.63;;;;;;;;;;4498605;28;20030;-57
2021/11/02 15:29:31;;;;;;;0.70;0.52;;;;;;;;;;4535027;28;20179;-57
2021/11/02 15:32:03;;;;;;;1.40;0.63;;;;;;;;;;4533497;28;20021;-57
2021/11/02 15:34:14;;;;;;;2.95;0.80;;;;;;;;;;4515726;28;20120;-58
2021/11/02 15:36:28;;;;;;;0.70;0.50;;;;;;;;;;4534481;28;20040;-58
2021/11/02 15:38:38;;;;;;;0.73;0.60;;;;;;;;;;4517035;28;20037;-57
2021/11/02 15:40:49;;;;;;;1.63;0.77;;;;;;;;;;4534088;28;20037;-58
2021/11/02 15:43:00;;;;;;;2.03;1.00;;;;;;;;;;4533528;28;20076;-57
2021/11/02 15:45:18;;;;;;;2.13;1.02;;;;;;;;;;4533977;28;20875;-57
2021/11/02 15:47:31;;;;;;;1.60;0.90;;;;;;;;;;4533044;28;20289;-58
2021/11/02 15:49:45;;;;;;;1.75;1.02;;;;;;;;;;4516719;28;20030;-58
2021/11/02 15:51:58;;;;;;;2.92;1.23;;;;;;;;;;4533985;28;21006;-57
2021/11/02 15:54:13;;;;;;;1.70;1.20;;;;;;;;;;4533780;28;20049;-57
2021/11/02 15:56:25;;;;;;;2.92;0.90;;;;;;;;;;4533573;28;20091;-58
2021/11/02 15:58:35;;;;;;;3.08;1.10;;;;;;;;;;4532733;28;20797;-58
2021/11/02 16:00:45;;;;;;;3.13;1.23;;;;;;;;;;4534887;28;20037;-58
2021/11/02 16:02:57;;;;;;;2.00;1.20;;;;;;;;;;4531957;28;20057;-57
2021/11/02 16:05:11;;;;;;;2.28;1.10;;;;;;;;;;4517289;28;20827;-58
2021/11/02 16:07:30;;;;;;;1.55;0.82;;;;;;;;;;4533329;28;20041;-58
2021/11/02 16:09:50;;;;;;;0.80;0.63;;;;;;;;;;4516985;28;20070;-57
2021/11/02 16:12:10;;;;;;;1.13;0.82;;;;;;;;;;4534052;28;20071;-57
2021/11/02 16:14:20;;;;;;;1.50;0.85;;;;;;;;;;4537510;28;20045;-58
2021/11/02 16:16:31;;;;;;;2.50;0.90;;;;;;;;;;4519342;28;20458;-58
2021/11/02 16:18:42;;;;;;;1.17;0.73;;;;;;;;;;4538309;28;20140;-57
2021/11/02 16:20:55;;;;;;;0.83;0.80;;;;;;;;;;4519744;28;20112;-58
2021/11/02 16:23:22;;;;;;;1.85;0.90;;;;;;;;;;4535824;28;20576;-57
2021/11/02 16:25:39;;;;;;;3.03;1.23;;;;;;;;;;4520283;28;20042;-58
2021/11/02 16:27:55;;;;;;;1.08;0.80;;;;;;;;;;4536916;28;20115;-58
2021/11/02 16:30:18;;;;;;;1.10;0.80;;;;;;;;;;4518950;28;20041;-58
2021/11/02 16:32:29;;;;;;;3.03;1.15;;;;;;;;;;4519276;28;20120;-57
2021/11/02 16:34:43;;;;;;;3.03;1.40;;;;;;;;;;4537564;28;20039;-58
2021/11/02 16:36:55;;;;;;;1.27;1.00;;;;;;;;;;4535801;28;20064;-57
2021/11/02 16:39:26;;;;;;;1.02;0.85;;;;;;;;;;4536740;28;20583;-58
2021/11/02 16:41:44;;;;;;;1.10;0.80;;;;;;;;;;4536413;28;20178;-58
2021/11/02 16:44:07;;;;;;;1.88;0.80;;;;;;;;;;4537121;28;20599;-58
2021/11/02 16:46:46;;;;;;;0.70;0.70;;;;;;;;;;4538294;28;20580;-57
2021/11/02 16:49:01;;;;;;;2.00;0.70;;;;;;;;;;4533396;28;20037;-58
2021/11/02 16:51:14;;;;;;;1.67;0.98;;;;;;;;;;4538078;28;20508;-58
2021/11/02 16:53:25;;;;;;;1.65;0.70;;;;;;;;;;4536556;28;20112;-57
2021/11/02 16:55:41;;;;;;;1.10;0.70;;;;;;;;;;4519279;28;20362;-57
2021/11/02 16:58:21;;;;;;;1.50;0.50;;;;;;;;;;4519693;28;20021;-58
2021/11/02 17:00:31;;;;;;;0.60;0.60;;;;;;;;;;4536436;28;20104;-58
2021/11/02 17:02:46;;;;;;;1.17;0.60;;;;;;;;;;4536558;28;30153;-57
2021/11/02 17:05:23;;;;;;;0.90;0.60;;;;;;;;;;4537769;28;20651;-57
2021/11/02 17:07:36;;;;;;;1.50;0.63;;;;;;;;;;4537848;28;20115;-58
2021/11/02 17:09:46;;;;;;;0.90;0.60;;;;;;;;;;4537001;28;20033;-58
2021/11/02 17:11:58;;;;;;;0.80;0.60;;;;;;;;;;4537335;28;20033;-57
2021/11/02 17:14:10;;;;;;;1.27;0.68;;;;;;;;;;4519941;28;20740;-57
2021/11/02 17:16:23;;;;;;;1.85;0.60;;;;;;;;;;4537246;28;20094;-57
2021/11/02 17:18:53;;;;;;;0.93;0.60;;;;;;;;;;4537082;28;20037;-57
2021/11/02 17:21:08;;;;;;;0.73;0.50;;;;;;;;;;4537451;28;20053;-57
2021/11/02 17:23:20;;;;;;;1.40;0.88;;;;;;;;;;4536429;28;20032;-57
2021/11/02 17:25:31;;;;;;;1.02;0.70;;;;;;;;;;4518587;28;20033;-58
2021/11/02 17:27:43;;;;;;;1.77;0.90;;;;;;;;;;4536629;28;20037;-58
2021/11/02 17:29:53;;;;;;;0.65;0.60;;;;;;;;;;4518772;28;20025;-59
2021/11/02 17:32:04;;;;;;;2.00;0.90;;;;;;;;;;4536122;28;20037;-57
2021/11/02 17:34:25;;;;;;;0.95;0.80;;;;;;;;;;4538061;28;20044;-57
2021/11/02 17:36:36;;;;;;;1.23;0.80;;;;;;;;;;4534724;28;20033;-57
2021/11/02 17:38:47;;;;;;;1.13;0.77;;;;;;;;;;4538203;28;20065;-57
2021/11/02 17:41:02;;;;;;;1.30;0.80;;;;;;;;;;4502238;28;20077;-57
2021/11/02 17:43:13;;;;;;;1.25;0.70;;;;;;;;;;4519209;28;20038;-57
2021/11/02 17:45:24;;;;;;;0.60;0.60;;;;;;;;;;4519313;28;20041;-59
2021/11/02 17:47:35;;;;;;;1.48;0.77;;;;;;;;;;4493031;28;20040;-57
2021/11/02 17:49:47;;;;;;;0.77;0.50;;;;;;;;;;4536986;28;20036;-56
2021/11/02 17:51:58;;;;;;;0.82;0.60;;;;;;;;;;4535695;28;20041;-58
2021/11/02 17:54:09;;;;;;;1.37;0.70;;;;;;;;;;4519677;28;20042;-57
2021/11/02 17:56:20;;;;;;;0.95;0.70;;;;;;;;;;4519375;28;20061;-57
2021/11/02 17:58:31;;;;;;;1.35;0.70;;;;;;;;;;4534200;28;20092;-57
2021/11/02 18:00:42;;;;;;;1.40;0.63;;;;;;;;;;4518090;28;20044;-57
2021/11/02 18:02:57;;;;;;;1.50;0.60;;;;;;;;;;4518940;28;20033;-57
2021/11/02 18:05:09;;;;;;;0.82;0.55;;;;;;;;;;4535684;28;20043;-59
2021/11/02 18:07:19;;;;;;;0.90;0.50;;;;;;;;;;4536612;28;20044;-58
2021/11/02 18:09:34;;;;;;;0.73;0.67;;;;;;;;;;4519395;28;20068;-57
2021/11/02 18:11:44;;;;;;;1.88;0.60;;;;;;;;;;4518751;28;20604;-57
2021/11/02 18:13:55;;;;;;;1.80;0.67;;;;;;;;;;4535939;28;20040;-57
2021/11/02 18:16:07;;;;;;;1.67;0.75;;;;;;;;;;4537052;28;20750;-57
2021/11/02 18:18:17;;;;;;;;;;;;;;;;;;4519683;28;20104;-57
2021/11/02 18:20:28;;;;;;;0.75;0.50;;;;;;;;;;4519051;28;19920;-59
2021/11/02 18:22:41;;;;;;;0.83;0.63;;;;;;;;;;4534428;28;20400;-57
2021/11/02 18:24:55;;;;;;;1.10;0.70;;;;;;;;;;4534237;28;20122;-57